createdAt,value
2018-11-03T00:01:10.291Z,102957.70
2018-11-03T00:03:44.255Z,102960.29
2018-11-03T00:06:16.665Z,102954.59
2018-11-03T00:08:50.286Z,102951.20
2018-11-03T00:11:33.427Z,102955.10
2018-11-03T00:14:07.454Z,102951.41
2018-11-03T00:16:40.646Z,102957.11
2018-11-03T00:19:14.544Z,102947.10
2018-11-03T00:21:48.036Z,102944.03
2018-11-03T00:24:26.190Z,102942.92
2018-11-03T00:27:01.073Z,102934.97
2018-11-03T00:29:34.980Z,102931.78
2018-11-03T00:32:09.237Z,102937.45
2018-11-03T00:34:41.850Z,102940.16
2018-11-03T00:37:17.752Z,102942.34
2018-11-03T00:39:52.849Z,102946.34
2018-11-03T00:42:27.902Z,102953.83
2018-11-03T00:45:02.895Z,102950.92
2018-11-03T00:47:38.167Z,102948.63
2018-11-03T00:50:14.112Z,102958.78
2018-11-03T00:52:49.717Z,102956.19
2018-11-03T00:55:24.346Z,102955.00
2018-11-03T00:58:01.423Z,102963.08
2018-11-03T01:00:36.821Z,102965.50
2018-11-03T01:03:14.533Z,102967.20
2018-11-03T01:05:53.964Z,102980.48
2018-11-03T01:08:31.872Z,102978.97
2018-11-03T01:11:10.697Z,102979.79
2018-11-03T01:16:28.001Z,102981.69
2018-11-03T01:19:05.008Z,102982.51
2018-11-03T01:21:39.795Z,102971.33
2018-11-03T01:24:13.982Z,102976.70
2018-11-03T01:26:51.226Z,102980.83
2018-11-03T01:29:27.435Z,102977.64
2018-11-03T01:32:03.941Z,102991.69
2018-11-03T01:34:40.176Z,102984.72
2018-11-03T01:37:16.555Z,102980.13
2018-11-03T01:39:53.256Z,102983.03
2018-11-03T01:42:27.405Z,102985.21
2018-11-03T01:45:03.207Z,102986.14
2018-11-03T01:47:38.756Z,102984.73
2018-11-03T01:50:10.912Z,102986.33
2018-11-03T01:52:41.316Z,102990.33
2018-11-03T01:55:11.040Z,102988.33
2018-11-03T01:57:40.711Z,102989.52
2018-11-03T02:00:11.248Z,102993.33
2018-11-03T02:02:40.834Z,102987.84
2018-11-03T02:05:10.883Z,102986.63
2018-11-03T02:07:40.542Z,102983.37
2018-11-03T02:10:11.570Z,102982.66
2018-11-03T02:12:41.408Z,102982.95
2018-11-03T02:15:11.231Z,102986.14
2018-11-03T02:17:40.749Z,102975.77
2018-11-03T02:20:41.342Z,102968.41
2018-11-03T02:23:15.738Z,102961.03
2018-11-03T02:25:45.229Z,102963.92
2018-11-03T02:28:14.843Z,102964.89
2018-11-03T02:30:44.335Z,102967.59
2018-11-03T02:35:55.063Z,102975.59
2018-11-03T02:38:24.537Z,102980.14
2018-11-03T02:40:54.551Z,102972.59
2018-11-03T02:43:24.217Z,102972.70
2018-11-03T02:45:53.826Z,102971.06
2018-11-03T02:48:23.389Z,102975.95
2018-11-03T02:50:53.106Z,102971.88
2018-11-03T02:53:22.714Z,102971.09
2018-11-03T02:55:52.291Z,102963.02
2018-11-03T02:58:21.845Z,102971.37
2018-11-03T03:00:51.902Z,102973.73
2018-11-03T03:03:21.447Z,102974.84
2018-11-03T03:05:50.925Z,102982.30
2018-11-03T03:08:20.654Z,102985.59
2018-11-03T03:10:50.130Z,102985.07
2018-11-03T03:13:19.737Z,102990.58
2018-11-03T03:15:49.930Z,102990.58
2018-11-03T03:18:19.469Z,102977.50
2018-11-03T03:20:48.992Z,102985.75
2018-11-03T03:23:18.563Z,102989.63
2018-11-03T03:25:48.265Z,102986.96
2018-11-03T03:28:17.859Z,102983.08
2018-11-03T03:30:47.330Z,102935.56
2018-11-03T03:33:16.924Z,102988.72
2018-11-03T03:35:46.412Z,102977.77
2018-11-03T03:38:15.973Z,102976.88
2018-11-03T03:40:45.579Z,102974.28
2018-11-03T03:43:15.221Z,102973.48
2018-11-03T03:45:47.882Z,102971.58
2018-11-03T03:48:17.406Z,102981.34
2018-11-03T03:50:51.038Z,102979.03
2018-11-03T03:53:20.675Z,102985.70
2018-11-03T03:55:50.162Z,102984.41
2018-11-03T03:58:19.715Z,102989.99
2018-11-03T04:00:49.263Z,102995.58
2018-11-03T04:03:18.831Z,102989.80
2018-11-03T04:05:48.247Z,102991.98
2018-11-03T04:08:20.635Z,102990.69
2018-11-03T04:10:50.243Z,102994.69
2018-11-03T04:13:19.848Z,102992.59
2018-11-03T04:15:49.414Z,102994.77
2018-11-03T04:18:18.966Z,103000.18
2018-11-03T04:20:48.583Z,103003.25
2018-11-03T04:23:18.084Z,103000.06
2018-11-03T04:25:52.035Z,103004.04
2018-11-03T04:28:21.730Z,103007.32
2018-11-03T04:30:51.344Z,103008.98
2018-11-03T04:33:20.879Z,103012.87
2018-11-03T04:35:50.433Z,102997.66
2018-11-03T04:38:19.990Z,102998.31
2018-11-03T04:40:49.538Z,102998.31
2018-11-03T04:43:21.519Z,102997.52
2018-11-03T04:45:51.023Z,102995.93
2018-11-03T04:48:20.709Z,103004.79
2018-11-03T04:50:50.267Z,102995.90
2018-11-03T04:53:19.807Z,103003.14
2018-11-03T04:55:49.349Z,103007.43
2018-11-03T04:58:18.990Z,103007.95
2018-11-03T05:00:49.049Z,103008.84
2018-11-03T05:03:18.439Z,103011.92
2018-11-03T05:05:47.838Z,103006.26
2018-11-03T05:08:17.235Z,103005.56
2018-11-03T05:10:46.695Z,103005.73
2018-11-03T05:13:16.155Z,103013.30
2018-11-03T05:15:45.595Z,103003.52
2018-11-03T05:18:15.265Z,103016.25
2018-11-03T05:20:44.675Z,103019.81
2018-11-03T05:23:14.078Z,103018.80
2018-11-03T05:25:43.514Z,103021.68
2018-11-03T05:28:12.884Z,103022.86
2018-11-03T05:30:42.294Z,103028.84
2018-11-03T05:33:11.692Z,103034.17
2018-11-03T05:35:41.055Z,103035.42
2018-11-03T05:38:10.468Z,103038.17
2018-11-03T05:40:39.921Z,103039.47
2018-11-03T05:43:09.342Z,103041.94
2018-11-03T05:45:38.815Z,103043.83
2018-11-03T05:48:08.196Z,103044.88
2018-11-03T05:50:37.548Z,103046.58
2018-11-03T05:53:07.013Z,103046.38
2018-11-03T05:55:36.386Z,103042.38
2018-11-03T05:58:07.134Z,103039.66
2018-11-03T06:00:36.795Z,103044.34
2018-11-03T06:03:06.918Z,103038.56
2018-11-03T06:05:36.576Z,103040.63
2018-11-03T06:08:06.488Z,103041.83
2018-11-03T06:10:36.163Z,103042.61
2018-11-03T06:13:06.383Z,103050.36
2018-11-03T06:15:35.939Z,103053.47
2018-11-03T06:18:07.030Z,103047.50
2018-11-03T06:20:36.615Z,103045.40
2018-11-03T06:23:06.575Z,103048.80
2018-11-03T06:25:36.203Z,103053.97
2018-11-03T06:28:06.367Z,103047.98
2018-11-03T06:30:35.887Z,103054.45
2018-11-03T06:33:06.507Z,103047.50
2018-11-03T06:35:36.016Z,103047.66
2018-11-03T06:38:06.827Z,103053.08
2018-11-03T06:40:36.542Z,103050.89
2018-11-03T06:43:07.019Z,103053.97
2018-11-03T06:45:36.673Z,103055.47
2018-11-03T06:48:07.269Z,103062.17
2018-11-03T06:50:37.018Z,103055.02
2018-11-03T06:53:06.797Z,103058.62
2018-11-03T06:55:36.555Z,103063.11
2018-11-03T06:58:06.478Z,103065.82
2018-11-03T07:00:36.087Z,103069.70
2018-11-03T07:03:06.906Z,103066.31
2018-11-03T07:05:36.473Z,103073.99
2018-11-03T07:08:07.103Z,103071.93
2018-11-03T07:10:36.669Z,103075.89
2018-11-03T07:13:06.341Z,103058.88
2018-11-03T07:15:35.924Z,103072.25
2018-11-03T07:18:06.858Z,103071.17
2018-11-03T07:20:36.468Z,103072.30
2018-11-03T07:23:06.743Z,103060.45
2018-11-03T07:25:36.334Z,103064.58
2018-11-03T07:28:06.891Z,103063.77
2018-11-03T07:30:36.434Z,103052.33
2018-11-03T07:33:07.011Z,103061.73
2018-11-03T07:35:36.630Z,103053.00
2018-11-03T07:38:06.748Z,103060.51
2018-11-03T07:40:36.556Z,103070.30
2018-11-03T07:43:06.311Z,103073.12
2018-11-03T07:45:35.979Z,103066.03
2018-11-03T07:48:06.621Z,103065.45
2018-11-03T07:50:36.156Z,103066.58
2018-11-03T07:53:06.624Z,103058.41
2018-11-03T07:55:36.295Z,103057.02
2018-11-03T07:58:06.852Z,103058.55
2018-11-03T08:00:36.440Z,103067.00
2018-11-03T08:03:06.035Z,103063.23
2018-11-03T08:05:35.490Z,103062.53
2018-11-03T08:08:06.798Z,103069.23
2018-11-03T08:10:36.210Z,103064.74
2018-11-03T08:13:06.929Z,103064.27
2018-11-03T08:15:36.461Z,103068.95
2018-11-03T08:18:06.752Z,103068.48
2018-11-03T08:20:36.184Z,103066.38
2018-11-03T08:23:06.505Z,103059.42
2018-11-03T08:25:44.842Z,103061.43
2018-11-03T08:28:14.238Z,103071.59
2018-11-03T08:30:43.786Z,103072.78
2018-11-03T08:33:13.218Z,103075.71
2018-11-03T08:35:42.635Z,103073.80
2018-11-03T08:38:12.061Z,103069.72
2018-11-03T08:40:41.557Z,103071.91
2018-11-03T08:43:11.019Z,103072.73
2018-11-03T08:45:40.531Z,103075.99
2018-11-03T08:48:10.024Z,103067.44
2018-11-03T08:50:39.956Z,103068.43
2018-11-03T08:53:09.385Z,103077.10
2018-11-03T08:55:39.209Z,103076.69
2018-11-03T08:58:08.695Z,103075.49
2018-11-03T09:00:38.332Z,103075.97
2018-11-03T09:03:09.049Z,103064.75
2018-11-03T09:05:42.367Z,103074.82
2018-11-03T09:08:11.870Z,103076.31
2018-11-03T09:10:41.322Z,103069.57
2018-11-03T09:13:10.737Z,103066.54
2018-11-03T09:15:40.897Z,103065.32
2018-11-03T09:18:10.374Z,103068.89
2018-11-03T09:20:40.000Z,103069.75
2018-11-03T09:23:09.423Z,103072.80
2018-11-03T09:25:38.830Z,103071.88
2018-11-03T09:28:08.288Z,103074.53
2018-11-03T09:30:37.760Z,103074.88
2018-11-03T09:33:07.202Z,103076.96
2018-11-03T09:35:36.712Z,103068.30
2018-11-03T09:38:06.623Z,103072.57
2018-11-03T09:40:36.027Z,103074.72
2018-11-03T09:43:07.216Z,103069.09
2018-11-03T09:45:36.650Z,103071.23
2018-11-03T09:48:06.743Z,103069.19
2018-11-03T09:50:36.192Z,103066.19
2018-11-03T09:53:07.300Z,103061.75
2018-11-03T09:55:36.731Z,103063.09
2018-11-03T09:58:06.440Z,103071.00
2018-11-03T10:00:35.877Z,103061.56
2018-11-03T10:03:06.442Z,103060.39
2018-11-03T10:05:35.782Z,103067.08
2018-11-03T10:08:09.452Z,103064.47
2018-11-03T10:10:39.757Z,103062.67
2018-11-03T10:13:09.105Z,103060.41
2018-11-03T10:15:38.576Z,103058.30
2018-11-03T10:18:07.968Z,103049.98
2018-11-03T10:20:37.413Z,103051.70
2018-11-03T10:23:06.989Z,103041.94
2018-11-03T10:25:36.243Z,103043.53
2018-11-03T10:28:06.639Z,103042.08
2018-11-03T10:30:36.076Z,103039.71
2018-11-03T10:33:06.195Z,103043.12
2018-11-03T10:35:35.985Z,103044.74
2018-11-03T10:38:06.074Z,103052.05
2018-11-03T10:40:35.485Z,103050.56
2018-11-03T10:43:06.439Z,103043.62
2018-11-03T10:45:35.856Z,103037.74
2018-11-03T10:48:06.750Z,103036.66
2018-11-03T10:50:36.180Z,103036.61
2018-11-03T10:53:07.002Z,103030.87
2018-11-03T10:55:36.429Z,103023.52
2018-11-03T10:58:06.200Z,103018.43
2018-11-03T11:00:40.740Z,103013.84
2018-11-03T11:03:15.242Z,103012.81
2018-11-03T11:05:49.954Z,103004.73
2018-11-03T11:08:24.473Z,102995.80
2018-11-03T11:10:59.213Z,102989.70
2018-11-03T11:13:30.357Z,102987.55
2018-11-03T11:15:59.884Z,102988.39
2018-11-03T11:18:29.279Z,102982.20
2018-11-03T11:20:58.763Z,102984.62
2018-11-03T11:23:28.164Z,102978.30
2018-11-03T11:25:57.564Z,102986.81
2018-11-03T11:28:27.781Z,102983.59
2018-11-03T11:30:57.208Z,102988.61
2018-11-03T11:33:26.730Z,102989.78
2018-11-03T11:36:11.179Z,102985.71
2018-11-03T11:38:40.652Z,102991.14
2018-11-03T11:41:10.027Z,102988.46
2018-11-03T11:43:39.419Z,102991.81
2018-11-03T11:46:08.841Z,102989.09
2018-11-03T11:48:38.830Z,102977.59
2018-11-03T11:51:08.212Z,102982.25
2018-11-03T11:53:37.635Z,102980.86
2018-11-03T11:56:07.249Z,102976.01
2018-11-03T11:58:38.593Z,102975.50
2018-11-03T12:01:08.041Z,102967.59
2018-11-03T12:03:37.538Z,102967.69
2018-11-03T12:06:07.199Z,102969.95
2018-11-03T12:08:36.688Z,102958.21
2018-11-03T12:14:21.165Z,102947.73
2018-11-03T12:16:51.092Z,102946.53
2018-11-03T12:19:20.451Z,102945.13
2018-11-03T12:21:51.771Z,102940.64
2018-11-03T12:24:21.126Z,102932.21
2018-11-03T12:26:50.637Z,102927.65
2018-11-03T12:29:21.061Z,102921.67
2018-11-03T12:31:51.345Z,102923.14
2018-11-03T12:34:20.773Z,102926.74
2018-11-03T12:36:50.169Z,102916.83
2018-11-03T12:39:19.515Z,102913.94
2018-11-03T12:41:48.974Z,102911.09
2018-11-03T12:44:18.329Z,102902.04
2018-11-03T12:46:47.754Z,102906.47
2018-11-03T12:49:17.118Z,102898.97
2018-11-03T12:51:46.594Z,102895.24
2018-11-03T12:54:15.991Z,102899.34
2018-11-03T12:56:45.806Z,102894.80
2018-11-03T12:59:15.308Z,102900.33
2018-11-03T13:01:44.636Z,102893.14
2018-11-03T13:04:13.984Z,102882.26
2018-11-03T13:06:43.411Z,102870.81
2018-11-03T13:09:12.772Z,102868.64
2018-11-03T13:11:42.196Z,102873.83
2018-11-03T13:14:11.582Z,102873.14
2018-11-03T13:16:40.949Z,102871.48
2018-11-03T13:19:10.372Z,102864.14
2018-11-03T13:21:39.927Z,102870.59
2018-11-03T13:24:09.330Z,102871.59
2018-11-03T13:26:38.686Z,102872.75
2018-11-03T13:29:08.327Z,102871.37
2018-11-03T13:31:37.688Z,102868.17
2018-11-03T13:34:07.420Z,102862.07
2018-11-03T13:36:36.874Z,102860.44
2018-11-03T13:39:08.366Z,102861.93
2018-11-03T13:41:37.825Z,102850.23
2018-11-03T13:44:07.257Z,102853.89
2018-11-03T13:46:36.868Z,102852.76
2018-11-03T13:49:06.317Z,102846.77
2018-11-03T13:51:35.772Z,102846.14
2018-11-03T13:54:07.661Z,102845.94
2018-11-03T13:56:37.204Z,102848.42
2018-11-03T13:59:06.726Z,102840.40
2018-11-03T14:01:36.824Z,102837.26
2018-11-03T14:04:06.249Z,102832.30
2018-11-03T14:07:08.326Z,102832.66
2018-11-03T14:09:38.027Z,102826.75
2018-11-03T14:12:07.542Z,102822.73
2018-11-03T14:14:36.958Z,102826.55
2018-11-03T14:17:06.593Z,102829.02
2018-11-03T14:19:36.101Z,102832.00
2018-11-03T14:22:06.597Z,102830.61
2018-11-03T14:24:36.036Z,102830.97
2018-11-03T14:27:06.291Z,102832.22
2018-11-03T14:29:35.646Z,102829.97
2018-11-03T14:32:05.299Z,102820.27
2018-11-03T14:34:34.686Z,102824.17
2018-11-03T14:37:04.231Z,102823.59
2018-11-03T14:39:33.627Z,102813.47
2018-11-03T14:42:03.124Z,102812.89
2018-11-03T14:44:32.620Z,102808.01
2018-11-03T14:47:02.187Z,102808.71
2018-11-03T14:49:31.554Z,102810.69
2018-11-03T14:52:01.066Z,102819.70
2018-11-03T14:54:30.392Z,102813.36
2018-11-03T14:56:59.827Z,102813.13
2018-11-03T14:59:29.206Z,102810.41
2018-11-03T15:01:58.583Z,102803.64
2018-11-03T15:04:27.985Z,102806.59
2018-11-03T15:06:57.363Z,102803.81
2018-11-03T15:09:26.855Z,102813.20
2018-11-03T15:11:56.251Z,102815.92
2018-11-03T15:14:25.741Z,102812.48
2018-11-03T15:16:55.105Z,102816.91
2018-11-03T15:19:25.539Z,102808.72
2018-11-03T15:21:54.919Z,102809.27
2018-11-03T15:24:24.319Z,102808.50
2018-11-03T15:26:53.661Z,102799.81
2018-11-03T15:29:23.099Z,102792.11
2018-11-03T15:31:54.454Z,102793.08
2018-11-03T15:34:24.005Z,102787.84
2018-11-03T15:36:53.413Z,102791.52
2018-11-03T15:39:22.828Z,102788.98
2018-11-03T15:41:52.287Z,102789.92
2018-11-03T15:44:21.717Z,102783.41
2018-11-03T15:46:51.032Z,102782.59
2018-11-03T15:49:20.379Z,102790.45
2018-11-03T15:51:49.777Z,102789.96
2018-11-03T15:54:19.186Z,102790.00
2018-11-03T15:59:40.016Z,102791.43
2018-11-03T16:02:12.597Z,102790.97
2018-11-03T16:04:44.424Z,102789.11
2018-11-03T16:07:16.468Z,102793.78
2018-11-03T16:09:48.375Z,102789.46
2018-11-03T16:12:20.637Z,102786.57
2018-11-03T16:14:52.413Z,102783.55
2018-11-03T16:17:27.629Z,102768.74
2018-11-03T16:19:59.668Z,102775.99
2018-11-03T16:22:32.467Z,102766.11
2018-11-03T16:25:04.968Z,102768.93
2018-11-03T16:27:38.009Z,102766.03
2018-11-03T16:30:13.286Z,102765.61
2018-11-03T16:32:45.483Z,102759.72
2018-11-03T16:35:19.423Z,102716.14
2018-11-03T16:37:51.456Z,102764.09
2018-11-03T16:40:21.040Z,102769.00
2018-11-03T16:42:50.624Z,102774.34
2018-11-03T16:45:20.195Z,102769.66
2018-11-03T16:47:49.754Z,102756.19
2018-11-03T16:50:19.323Z,102767.25
2018-11-03T16:52:48.918Z,102770.20
2018-11-03T16:55:18.727Z,102773.38
2018-11-03T16:57:48.495Z,102772.27
2018-11-03T17:00:18.130Z,102766.75
2018-11-03T17:02:47.802Z,102769.56
2018-11-03T17:05:17.601Z,102760.96
2018-11-03T17:07:47.327Z,102765.53
2018-11-03T17:10:18.914Z,102762.79
2018-11-03T17:12:48.737Z,102765.64
2018-11-03T17:15:18.441Z,102765.55
2018-11-03T17:17:48.237Z,102754.19
2018-11-03T17:20:17.839Z,102760.70
2018-11-03T17:22:47.523Z,102762.01
2018-11-03T17:25:17.273Z,102754.19
2018-11-03T17:27:46.753Z,102758.48
2018-11-03T17:30:16.566Z,102756.38
2018-11-03T17:32:46.066Z,102757.18
2018-11-03T17:35:15.418Z,102758.43
2018-11-03T17:37:45.075Z,102756.71
2018-11-03T17:40:14.435Z,102752.30
2018-11-03T17:42:43.832Z,102757.92
2018-11-03T17:45:13.475Z,102752.72
2018-11-03T17:47:42.835Z,102747.04
2018-11-03T17:50:13.560Z,102746.20
2018-11-03T17:52:43.385Z,102748.81
2018-11-03T17:55:12.783Z,102748.81
2018-11-03T17:57:42.232Z,102745.23
2018-11-03T18:00:15.240Z,102746.06
2018-11-03T18:02:46.146Z,102745.19
2018-11-03T18:05:16.404Z,102748.25
2018-11-03T18:07:45.802Z,102746.39
2018-11-03T18:10:15.226Z,102735.89
2018-11-03T18:12:44.945Z,102736.73
2018-11-03T18:15:14.319Z,102730.55
2018-11-03T18:17:43.794Z,102734.36
2018-11-03T18:20:13.729Z,102729.81
2018-11-03T18:22:43.084Z,102725.30
2018-11-03T18:25:12.509Z,102725.95
2018-11-03T18:27:42.948Z,102726.70
2018-11-03T18:30:13.411Z,102713.04
2018-11-03T18:32:43.100Z,102719.88
2018-11-03T18:35:12.771Z,102712.81
2018-11-03T18:37:42.184Z,102710.95
2018-11-03T18:40:11.678Z,102705.57
2018-11-03T18:42:41.047Z,102701.44
2018-11-03T18:45:13.123Z,102700.45
2018-11-03T18:47:42.679Z,102702.03
2018-11-03T18:50:14.053Z,102693.25
2018-11-03T18:52:43.511Z,102694.87
2018-11-03T18:55:13.207Z,102686.52
2018-11-03T18:57:42.760Z,102690.75
2018-11-03T19:00:12.610Z,102685.39
2018-11-03T19:02:42.305Z,102678.72
2018-11-03T19:05:11.826Z,102678.57
2018-11-03T19:07:41.425Z,102669.28
2018-11-03T19:10:11.420Z,102671.83
2018-11-03T19:12:40.857Z,102673.87
2018-11-03T19:15:10.888Z,102667.48
2018-11-03T19:17:40.714Z,102677.83
2018-11-03T19:20:13.259Z,102678.06
2018-11-03T19:22:42.803Z,102677.92
2018-11-03T19:25:13.427Z,102678.25
2018-11-03T19:27:42.939Z,102675.50
2018-11-03T19:30:13.451Z,102684.41
2018-11-03T19:32:43.966Z,102682.46
2018-11-03T19:35:13.348Z,102678.41
2018-11-03T19:37:42.944Z,102684.82
2018-11-03T19:40:13.322Z,102691.73
2018-11-03T19:42:43.013Z,102687.69
2018-11-03T19:45:12.804Z,102688.16
2018-11-03T19:47:42.162Z,102689.78
2018-11-03T19:50:11.774Z,102685.88
2018-11-03T19:52:41.147Z,102686.61
2018-11-03T19:55:10.539Z,102683.45
2018-11-03T19:57:40.009Z,102683.30
2018-11-03T20:00:18.014Z,102676.14
2018-11-03T20:02:47.560Z,102679.39
2018-11-03T20:05:16.867Z,102682.16
2018-11-03T20:07:46.392Z,102688.56
2018-11-03T20:10:15.895Z,102681.91
2018-11-03T20:12:45.194Z,102681.66
2018-11-03T20:15:14.761Z,102683.28
2018-11-03T20:17:44.246Z,102689.59
2018-11-03T20:20:14.314Z,102694.72
2018-11-03T20:22:43.755Z,102692.34
2018-11-03T20:25:13.671Z,102681.39
2018-11-03T20:27:43.063Z,102678.22
2018-11-03T20:30:14.080Z,102672.36
2018-11-03T20:32:43.994Z,102668.22
2018-11-03T20:35:13.390Z,102662.77
2018-11-03T20:37:42.707Z,102662.52
2018-11-03T20:40:13.330Z,102669.23
2018-11-03T20:42:42.815Z,102660.81
2018-11-03T20:45:12.543Z,102652.36
2018-11-03T20:47:42.041Z,102647.79
2018-11-03T20:50:14.012Z,102649.98
2018-11-03T20:52:43.374Z,102647.63
2018-11-03T20:55:24.942Z,102646.46
2018-11-03T20:57:54.417Z,102650.34
2018-11-03T21:00:24.356Z,102644.39
2018-11-03T21:02:54.051Z,102642.94
2018-11-03T21:05:23.751Z,102642.27
2018-11-03T21:07:53.445Z,102636.19
2018-11-03T21:10:23.387Z,102635.99
2018-11-03T21:12:53.088Z,102629.34
2018-11-03T21:15:23.698Z,102628.98
2018-11-03T21:17:53.226Z,102620.22
2018-11-03T21:20:22.736Z,102624.45
2018-11-03T21:22:52.586Z,102625.75
2018-11-03T21:25:22.154Z,102621.25
2018-11-03T21:27:51.928Z,102622.86
2018-11-03T21:30:21.549Z,102613.72
2018-11-03T21:32:53.295Z,102614.13
2018-11-03T21:35:22.914Z,102611.84
2018-11-03T21:37:52.518Z,102603.08
2018-11-03T21:40:22.157Z,102596.19
2018-11-03T21:42:51.855Z,102596.09
2018-11-03T21:45:21.542Z,102587.73
2018-11-03T21:47:51.079Z,102587.16
2018-11-03T21:50:20.678Z,102585.13
2018-11-03T21:52:50.218Z,102576.57
2018-11-03T21:55:19.786Z,102575.48
2018-11-03T21:57:49.332Z,102569.47
2018-11-03T22:00:18.891Z,102574.39
2018-11-03T22:02:56.746Z,102575.01
2018-11-03T22:05:26.377Z,102573.85
2018-11-03T22:07:56.024Z,102566.39
2018-11-03T22:10:25.733Z,102562.81
2018-11-03T22:12:55.371Z,102553.56
2018-11-03T22:15:24.725Z,102549.00
2018-11-03T22:17:54.191Z,102550.61
2018-11-03T22:20:23.538Z,102542.16
2018-11-03T22:22:53.054Z,102544.00
2018-11-03T22:25:22.620Z,102536.44
2018-11-03T22:27:53.051Z,102532.48
2018-11-03T22:30:22.404Z,102524.92
2018-11-03T22:32:51.911Z,102520.45
2018-11-03T22:35:21.328Z,102513.41
2018-11-03T22:37:51.743Z,102513.92
2018-11-03T22:40:21.102Z,102515.77
2018-11-03T22:42:51.046Z,102513.20
2018-11-03T22:45:20.447Z,102506.62
2018-11-03T22:47:49.944Z,102493.61
2018-11-03T22:50:19.372Z,102496.09
2018-11-03T22:52:48.791Z,102491.80
2018-11-03T22:55:22.055Z,102483.25
2018-11-03T22:57:51.446Z,102480.25
2018-11-03T23:00:20.926Z,102474.88
2018-11-03T23:02:50.451Z,102477.87
2018-11-03T23:05:19.825Z,102468.53
2018-11-03T23:07:49.296Z,102469.25
2018-11-03T23:10:18.654Z,102465.20
2018-11-03T23:12:48.158Z,102457.73
2018-11-03T23:15:17.553Z,102461.63
2018-11-03T23:17:46.991Z,102457.53
2018-11-03T23:20:16.412Z,102454.78
2018-11-03T23:22:45.790Z,102445.55
2018-11-03T23:25:15.110Z,102445.34
2018-11-03T23:27:44.489Z,102443.05
2018-11-03T23:30:13.942Z,102440.88
2018-11-03T23:32:43.183Z,102439.41
2018-11-03T23:35:14.927Z,102441.83
2018-11-03T23:37:44.361Z,102431.27
2018-11-03T23:40:13.765Z,102424.62
2018-11-03T23:42:43.212Z,102433.17
2018-11-03T23:45:12.582Z,102429.70
2018-11-03T23:47:42.144Z,102424.83
2018-11-03T23:50:12.963Z,102418.67
2018-11-03T23:52:46.359Z,102411.21
2018-11-03T23:55:15.739Z,102411.04
2018-11-03T23:57:45.186Z,102410.94
